Time;durP1;ratioP1;P1;durP2;ratioP2;P2;SDS_P1;SDS_P2;PMS_P1;PMS_P2;Temp;Humidity;BMP_temperature;BMP_pressure;BME280_temperature;BME280_humidity;BME280_pressure;Samples;Min_cycle;Max_cycle;Signal;HPM_P1;HPM_P2
2023/03/22 00:01:22;;;;;;;5.80;5.30;;;7.80;99.90;;;;;;5042410;28;20053;-36
2023/03/22 00:03:51;;;;;;;4.95;3.80;;;7.90;99.90;;;;;;5042039;28;20049;-36
2023/03/22 00:06:19;;;;;;;7.07;4.93;;;8.00;99.90;;;;;;5043281;28;20059;-36
2023/03/22 00:08:50;;;;;;;4.90;3.78;;;8.00;99.90;;;;;;5043478;28;20061;-36
2023/03/22 00:11:21;;;;;;;4.47;3.38;;;8.00;99.90;;;;;;5042594;28;20052;-36
2023/03/22 00:13:51;;;;;;;3.90;3.33;;;7.80;99.90;;;;;;5041121;28;20045;-37
2023/03/22 00:16:20;;;;;;;4.05;3.65;;;7.70;99.90;;;;;;5043155;28;20310;-36
2023/03/22 00:18:48;;;;;;;10.23;4.38;;;7.40;99.90;;;;;;5043232;28;20409;-36
2023/03/22 00:21:16;;;;;;;8.98;3.47;;;7.40;99.90;;;;;;5043265;28;20049;-36
2023/03/22 00:23:44;;;;;;;7.55;3.28;;;7.10;99.90;;;;;;5041922;28;20060;-36
2023/03/22 00:26:13;;;;;;;7.15;3.47;;;6.90;99.90;;;;;;5042441;28;20292;-36
2023/03/22 00:28:42;;;;;;;5.88;3.97;;;6.80;99.90;;;;;;5041673;28;20052;-36
2023/03/22 00:31:10;;;;;;;6.18;4.88;;;6.70;99.90;;;;;;5040871;28;20045;-37
2023/03/22 00:33:38;;;;;;;9.73;5.75;;;6.70;99.90;;;;;;5038401;28;20568;-36
2023/03/22 00:36:10;;;;;;;5.63;5.10;;;6.70;99.90;;;;;;5042735;28;20520;-36
2023/03/22 00:38:38;;;;;;;14.50;4.63;;;6.70;99.90;;;;;;5041660;28;20052;-35
2023/03/22 00:41:18;;;;;;;9.30;3.58;;;6.70;99.90;;;;;;5041587;28;20053;-35
2023/03/22 00:43:48;;;;;;;6.43;4.72;;;6.70;99.90;;;;;;5040993;28;20060;-35
2023/03/22 00:46:18;;;;;;;4.80;4.25;;;6.80;99.90;;;;;;5042788;28;20053;-36
2023/03/22 00:48:46;;;;;;;6.93;3.55;;;6.80;99.90;;;;;;5042284;28;20064;-36
2023/03/22 00:51:14;;;;;;;8.25;5.88;;;6.70;99.90;;;;;;5040422;28;20056;-36
2023/03/22 00:53:43;;;;;;;7.25;4.95;;;6.80;99.90;;;;;;5040046;28;20524;-36
2023/03/22 00:56:14;;;;;;;5.97;4.07;;;6.80;99.90;;;;;;5041617;28;20044;-37
2023/03/22 00:58:56;;;;;;;4.82;3.67;;;6.80;99.90;;;;;;5040077;28;20037;-36
2023/03/22 01:01:24;;;;;;;4.50;4.10;;;6.70;99.90;;;;;;5040390;28;20053;-36
2023/03/22 01:03:54;;;;;;;9.02;7.20;;;6.40;99.90;;;;;;5042902;28;20057;-35
2023/03/22 01:06:22;;;;;;;7.68;6.15;;;6.20;99.90;;;;;;5040409;28;20053;-36
2023/03/22 01:08:50;;;;;;;4.97;3.92;;;6.20;99.90;;;;;;5042711;28;20045;-37
2023/03/22 01:11:18;;;;;;;6.32;5.35;;;6.30;99.90;;;;;;5042131;28;20052;-36
2023/03/22 01:13:46;;;;;;;6.75;4.68;;;6.40;99.90;;;;;;5039912;28;20045;-36
2023/03/22 01:16:15;;;;;;;6.35;5.70;;;6.70;99.90;;;;;;5040928;28;20413;-36
2023/03/22 01:18:43;;;;;;;4.53;3.78;;;6.90;99.90;;;;;;5042847;28;20049;-36
2023/03/22 01:21:11;;;;;;;3.13;2.80;;;6.80;99.90;;;;;;5043275;28;20057;-36
2023/03/22 01:23:39;;;;;;;3.95;3.55;;;6.70;99.90;;;;;;5041048;28;20256;-36
2023/03/22 01:26:06;;;;;;;9.85;5.90;;;6.50;99.90;;;;;;5034783;28;20446;-36
2023/03/22 01:28:34;;;;;;;4.05;3.65;;;6.50;99.90;;;;;;5039621;28;20513;-36
2023/03/22 01:31:02;;;;;;;5.25;4.47;;;6.70;99.90;;;;;;5041705;28;20573;-36
2023/03/22 01:33:30;;;;;;;5.28;4.78;;;6.80;99.90;;;;;;5041410;28;20053;-36
2023/03/22 01:35:59;;;;;;;4.18;3.78;;;6.80;99.90;;;;;;5041531;28;20064;-36
2023/03/22 01:38:27;;;;;;;5.68;5.13;;;6.70;99.90;;;;;;5041548;28;20413;-36
2023/03/22 01:41:00;;;;;;;6.35;5.55;;;6.70;99.90;;;;;;5040392;28;20053;-36
2023/03/22 01:43:30;;;;;;;5.68;4.40;;;6.60;99.90;;;;;;5039881;28;20044;-36
2023/03/22 01:45:58;;;;;;;6.68;5.07;;;6.60;99.90;;;;;;5040370;28;20083;-36
2023/03/22 01:48:44;;;;;;;6.20;5.53;;;6.70;99.90;;;;;;5040996;28;20072;-35
2023/03/22 01:51:23;;;;;;;5.30;4.85;;;6.80;99.90;;;;;;5040198;28;20052;-35
2023/03/22 01:54:05;;;;;;;5.47;5.07;;;7.00;99.90;;;;;;5040044;28;20064;-35
2023/03/22 01:56:37;;;;;;;7.70;5.13;;;7.20;99.90;;;;;;5019792;28;20477;-35
2023/03/22 01:59:11;;;;;;;4.68;4.25;;;7.20;99.90;;;;;;5038709;28;20049;-36
2023/03/22 02:02:03;;;;;;;5.28;4.85;;;7.10;99.90;;;;;;5029885;28;20045;-35
2023/03/22 02:04:38;;;;;;;4.97;4.47;;;6.90;99.90;;;;;;5043590;28;20064;-35
2023/03/22 02:07:14;;;;;;;5.72;4.57;;;6.90;99.90;;;;;;5044843;28;20056;-35
2023/03/22 02:09:44;;;;;;;5.13;4.03;;;6.90;99.90;;;;;;5043805;28;20057;-35
2023/03/22 02:12:18;;;;;;;6.22;5.63;;;7.00;99.90;;;;;;5044444;28;20040;-35
2023/03/22 02:15:10;;;;;;;7.70;4.95;;;7.10;99.90;;;;;;5043487;28;20860;-35
2023/03/22 02:18:17;;;;;;;4.55;4.20;;;7.10;99.90;;;;;;5041651;28;20110;-36
2023/03/22 02:21:14;;;;;;;6.25;5.32;;;7.00;99.90;;;;;;5038426;28;20052;-35
2023/03/22 02:23:55;;;;;;;5.97;4.20;;;6.90;99.90;;;;;;5042409;28;20056;-35
2023/03/22 02:27:03;;;;;;;5.05;4.45;;;6.90;99.90;;;;;;5041518;28;20750;-35
2023/03/22 02:29:43;;;;;;;8.50;5.80;;;6.80;99.90;;;;;;5041306;28;20053;-35
2023/03/22 02:32:52;;;;;;;5.20;4.68;;;6.80;99.90;;;;;;5043813;28;20049;-36
2023/03/22 02:35:32;;;;;;;6.07;5.50;;;6.70;99.90;;;;;;5041548;28;20052;-36
2023/03/22 02:38:19;;;;;;;6.43;4.63;;;6.70;99.90;;;;;;5044451;28;20041;-35
2023/03/22 02:41:22;;;;;;;4.88;4.40;;;6.50;99.90;;;;;;5045443;28;20037;-36
2023/03/22 02:44:07;;;;;;;8.23;6.45;;;6.40;99.90;;;;;;5029949;28;20068;-35
2023/03/22 02:46:43;;;;;;;8.25;5.80;;;6.30;99.90;;;;;;5044814;28;20048;-35
2023/03/22 02:49:16;;;;;;;9.63;5.38;;;6.30;99.90;;;;;;5044133;28;20559;-35
2023/03/22 02:52:09;;;;;;;6.07;4.47;;;6.30;99.90;;;;;;5044276;28;20048;-36
2023/03/22 02:54:46;;;;;;;5.22;4.75;;;6.30;99.90;;;;;;5041093;28;20623;-35
2023/03/22 02:57:28;;;;;;;6.00;5.43;;;6.20;99.90;;;;;;5044045;28;20072;-36
2023/03/22 02:59:58;;;;;;;5.90;5.20;;;6.10;99.90;;;;;;5040273;28;20049;-35
2023/03/22 03:02:27;;;;;;;7.50;5.47;;;6.00;99.90;;;;;;5042955;28;20556;-36
2023/03/22 03:04:56;;;;;;;8.00;6.95;;;5.90;99.90;;;;;;5045743;28;20508;-35
2023/03/22 03:07:27;;;;;;;12.02;5.63;;;5.90;99.90;;;;;;5044605;28;20486;-36
2023/03/22 03:09:56;;;;;;;6.80;5.38;;;5.80;99.90;;;;;;5034892;28;20421;-35
2023/03/22 03:12:26;;;;;;;4.93;4.22;;;5.60;99.90;;;;;;5042078;28;20052;-36
2023/03/22 03:14:56;;;;;;;5.90;5.22;;;5.30;99.90;;;;;;5025980;28;20041;-36
2023/03/22 03:17:41;;;;;;;6.13;4.72;;;5.20;99.90;;;;;;5042169;28;20060;-35
2023/03/22 03:20:23;;;;;;;9.43;5.80;;;5.20;99.90;;;;;;5044542;28;20052;-35
2023/03/22 03:23:20;;;;;;;10.05;6.63;;;5.20;99.90;;;;;;5042482;28;20336;-35
2023/03/22 03:26:02;;;;;;;5.78;5.20;;;5.30;99.90;;;;;;5039709;28;20683;-35
2023/03/22 03:28:51;;;;;;;8.25;7.07;;;5.30;99.90;;;;;;5040467;28;20510;-35
2023/03/22 03:31:26;;;;;;;9.88;6.50;;;5.40;99.90;;;;;;5040411;28;20461;-35
2023/03/22 03:34:07;;;;;;;8.88;7.97;;;5.50;99.90;;;;;;5042250;28;20446;-35
2023/03/22 03:36:37;;;;;;;;;;;5.50;99.90;;;;;;5041429;28;20064;-35
2023/03/22 03:39:09;;;;;;;7.05;6.43;;;5.40;99.90;;;;;;5043890;28;19932;-35
2023/03/22 03:41:39;;;;;;;11.02;6.40;;;5.10;99.90;;;;;;5043155;28;20386;-35
2023/03/22 03:44:07;;;;;;;7.32;6.72;;;4.90;99.90;;;;;;5040269;28;20052;-35
2023/03/22 03:46:36;;;;;;;9.75;6.35;;;4.90;99.90;;;;;;5041971;28;20045;-35
2023/03/22 03:49:06;;;;;;;7.63;6.82;;;4.90;99.90;;;;;;5043916;28;20127;-35
2023/03/22 03:51:45;;;;;;;8.68;6.75;;;5.00;99.90;;;;;;5042772;28;20060;-35
2023/03/22 03:54:12;;;;;;;7.88;6.82;;;5.10;99.90;;;;;;5038996;28;20052;-35
2023/03/22 03:56:41;;;;;;;5.93;5.32;;;5.00;99.90;;;;;;5042274;28;20515;-35
2023/03/22 03:59:09;;;;;;;7.00;5.85;;;5.00;99.90;;;;;;5041675;28;20293;-36
2023/03/22 04:01:38;;;;;;;7.80;6.13;;;4.90;99.90;;;;;;5041579;28;20116;-35
2023/03/22 04:04:14;;;;;;;7.13;5.72;;;4.90;99.90;;;;;;5041838;28;20500;-35
2023/03/22 04:06:47;;;;;;;5.82;4.57;;;4.80;99.90;;;;;;5042116;28;20615;-35
2023/03/22 04:09:20;;;;;;;5.88;5.22;;;4.70;99.90;;;;;;5040575;28;20280;-35
2023/03/22 04:11:53;;;;;;;5.22;4.47;;;4.80;99.90;;;;;;5041970;28;20477;-35
2023/03/22 04:14:22;;;;;;;4.78;4.38;;;4.90;99.90;;;;;;5039864;28;20605;-36
2023/03/22 04:16:52;;;;;;;5.63;4.87;;;5.10;99.90;;;;;;5042021;28;20425;-35
2023/03/22 04:19:21;;;;;;;6.85;5.40;;;5.10;99.90;;;;;;5041152;28;20049;-35
2023/03/22 04:21:51;;;;;;;8.30;4.85;;;5.10;99.90;;;;;;5042273;28;20053;-35
2023/03/22 04:24:20;;;;;;;7.20;6.55;;;5.20;99.90;;;;;;5040840;28;20060;-34
2023/03/22 04:26:51;;;;;;;6.75;6.20;;;5.10;99.90;;;;;;5040437;28;20421;-35
2023/03/22 04:29:30;;;;;;;6.40;5.18;;;4.90;99.90;;;;;;5038325;28;20056;-35
2023/03/22 04:32:10;;;;;;;6.97;5.07;;;4.80;99.90;;;;;;5040519;28;20045;-35
2023/03/22 04:34:41;;;;;;;7.28;6.57;;;4.70;99.90;;;;;;5042610;28;20041;-35
2023/03/22 04:37:12;;;;;;;7.50;4.83;;;4.70;99.90;;;;;;5042489;28;20061;-35
2023/03/22 04:39:49;;;;;;;6.70;5.65;;;4.80;99.90;;;;;;5040356;28;20053;-35
2023/03/22 04:42:29;;;;;;;6.43;4.90;;;4.70;99.90;;;;;;5038130;28;20048;-35
2023/03/22 04:45:10;;;;;;;6.28;5.65;;;4.60;99.90;;;;;;5040612;28;20387;-35
2023/03/22 04:47:39;;;;;;;4.47;4.07;;;4.60;99.90;;;;;;5040837;28;20432;-35
2023/03/22 04:50:08;;;;;;;5.90;5.38;;;4.40;99.90;;;;;;5041648;28;20381;-36
2023/03/22 04:52:43;;;;;;;5.53;5.03;;;4.10;99.90;;;;;;5040918;28;20060;-35
2023/03/22 04:55:10;;;;;;;7.85;5.43;;;4.00;99.90;;;;;;5036119;28;20071;-35
2023/03/22 04:57:38;;;;;;;6.35;3.72;;;3.90;99.90;;;;;;5040392;28;20060;-35
2023/03/22 05:00:09;;;;;;;5.88;4.75;;;3.90;99.90;;;;;;5041132;28;20052;-35
2023/03/22 05:02:39;;;;;;;;;;;4.00;99.90;;;;;;5040475;28;20045;-35
2023/03/22 05:05:15;;;;;;;6.50;4.47;;;4.00;99.90;;;;;;5040256;28;19931;-36
2023/03/22 05:07:43;;;;;;;5.63;4.75;;;4.10;99.90;;;;;;5041700;28;20057;-35
2023/03/22 05:10:11;;;;;;;7.65;5.80;;;4.30;99.90;;;;;;5041701;28;20059;-35
2023/03/22 05:12:39;;;;;;;4.90;4.47;;;4.30;99.90;;;;;;5040265;28;20049;-35
2023/03/22 05:15:28;;;;;;;5.95;4.45;;;4.30;99.90;;;;;;5042177;28;20049;-35
2023/03/22 05:17:57;;;;;;;9.93;4.93;;;4.30;99.90;;;;;;5040091;28;20045;-36
2023/03/22 05:20:25;;;;;;;7.50;5.32;;;4.40;99.90;;;;;;5042151;28;20053;-35
2023/03/22 05:23:08;;;;;;;5.53;4.55;;;4.50;99.90;;;;;;5039543;28;20067;-35
2023/03/22 05:25:37;;;;;;;6.30;4.57;;;4.50;99.90;;;;;;5034905;28;20104;-35
2023/03/22 05:28:05;;;;;;;6.03;5.13;;;4.50;99.90;;;;;;5039471;28;20072;-35
2023/03/22 05:30:56;;;;;;;5.97;4.32;;;4.50;99.90;;;;;;5039837;28;20053;-35
2023/03/22 05:33:38;;;;;;;5.53;5.03;;;4.60;99.90;;;;;;5040483;28;20077;-35
2023/03/22 05:36:10;;;;;;;5.57;3.92;;;4.50;99.90;;;;;;5039946;28;20055;-35
2023/03/22 05:38:48;;;;;;;3.50;3.20;;;4.60;99.90;;;;;;5042400;28;20040;-35
2023/03/22 05:41:18;;;;;;;3.42;3.08;;;4.60;99.90;;;;;;5044960;28;20056;-35
2023/03/22 05:43:46;;;;;;;4.32;4.03;;;4.80;99.90;;;;;;5043509;28;20045;-35
2023/03/22 05:46:14;;;;;;;4.47;4.07;;;4.90;99.90;;;;;;5044051;28;20056;-35
2023/03/22 05:49:17;;;;;;;3.90;2.70;;;5.00;99.90;;;;;;4982707;28;20181;-35
2023/03/22 05:51:44;;;;;;;4.50;4.10;;;5.10;99.90;;;;;;5026426;28;20060;-35
2023/03/22 05:54:14;;;;;;;3.47;2.85;;;5.20;99.90;;;;;;5043852;28;20059;-35
2023/03/22 05:56:47;;;;;;;4.10;3.22;;;5.30;99.90;;;;;;5045081;28;20059;-35
2023/03/22 05:59:15;;;;;;;6.03;5.43;;;5.30;99.90;;;;;;5043195;28;20559;-35
2023/03/22 06:01:43;;;;;;;5.05;4.38;;;5.10;99.90;;;;;;5043043;28;20087;-35
2023/03/22 06:04:21;;;;;;;13.57;6.93;;;5.20;99.90;;;;;;5044541;28;20049;-35
2023/03/22 06:07:01;;;;;;;6.60;5.00;;;5.40;99.90;;;;;;5044083;28;20059;-35
2023/03/22 06:09:42;;;;;;;4.82;4.25;;;5.40;99.90;;;;;;5043495;28;20532;-35
2023/03/22 06:12:18;;;;;;;5.43;4.93;;;5.50;99.90;;;;;;5044091;28;20069;-35
2023/03/22 06:14:51;;;;;;;5.45;4.93;;;5.60;99.90;;;;;;5043424;28;20064;-35
2023/03/22 06:17:43;;;;;;;5.38;3.88;;;5.70;99.90;;;;;;5044017;28;20049;-35
2023/03/22 06:20:14;;;;;;;5.22;4.47;;;6.10;99.90;;;;;;5045592;28;20456;-35
2023/03/22 06:22:49;;;;;;;4.05;3.72;;;6.30;99.90;;;;;;5043277;28;20082;-35
2023/03/22 06:25:16;;;;;;;8.20;5.55;;;6.60;99.90;;;;;;5027094;28;20469;-35
2023/03/22 06:27:47;;;;;;;6.18;5.68;;;7.00;99.90;;;;;;5042201;28;20258;-35
2023/03/22 06:30:16;;;;;;;8.85;4.07;;;7.40;99.90;;;;;;5041884;28;20208;-35
2023/03/22 06:33:06;;;;;;;5.13;4.57;;;7.90;99.90;;;;;;5043570;28;20083;-35
2023/03/22 06:35:37;;;;;;;4.03;3.72;;;8.30;99.90;;;;;;5043988;28;20867;-35
2023/03/22 06:38:08;;;;;;;3.60;3.30;;;8.30;99.90;;;;;;5044574;28;20045;-35
2023/03/22 06:40:37;;;;;;;4.20;3.67;;;8.40;99.90;;;;;;5042877;28;20349;-36
2023/03/22 06:43:05;;;;;;;4.25;3.20;;;8.80;99.90;;;;;;5041415;28;20049;-35
2023/03/22 06:45:36;;;;;;;4.45;3.63;;;9.60;99.90;;;;;;5043346;28;20537;-36
2023/03/22 06:48:04;;;;;;;3.92;3.53;;;10.60;99.90;;;;;;5043199;28;20390;-35
2023/03/22 06:51:01;;;;;;;5.60;3.30;;;11.80;99.90;;;;;;5026489;28;20497;-35
2023/03/22 06:53:34;;;;;;;8.80;3.25;;;12.80;99.90;;;;;;5042902;28;20540;-35
2023/03/22 06:56:04;;;;;;;3.95;3.33;;;13.10;99.90;;;;;;5043666;28;20395;-35
2023/03/22 06:58:41;;;;;;;3.83;3.42;;;13.60;99.90;;;;;;5041653;28;20041;-35
2023/03/22 07:01:08;;;;;;;4.72;4.25;;;13.50;99.90;;;;;;5047474;28;20060;-35
2023/03/22 07:03:36;;;;;;;7.38;4.82;;;13.80;99.90;;;;;;5048293;28;20049;-35
2023/03/22 07:06:10;;;;;;;5.88;3.60;;;14.60;99.90;;;;;;5043863;28;20056;-35
2023/03/22 07:08:42;;;;;;;4.38;3.97;;;15.20;99.90;;;;;;5043035;28;20141;-35
2023/03/22 07:11:12;;;;;;;4.60;4.18;;;15.40;99.90;;;;;;5041232;28;20057;-35
2023/03/22 07:13:41;;;;;;;3.15;2.92;;;15.00;99.90;;;;;;5041145;28;20292;-35
2023/03/22 07:16:14;;;;;;;2.83;2.63;;;14.90;99.90;;;;;;5042949;28;20060;-35
2023/03/22 07:18:47;;;;;;;5.03;4.32;;;15.10;99.90;;;;;;5037232;28;20045;-35
2023/03/22 07:21:15;;;;;;;4.00;3.38;;;15.60;99.90;;;;;;5042293;28;20049;-35
2023/03/22 07:23:47;;;;;;;4.38;4.07;;;15.80;99.90;;;;;;5041911;28;20356;-35
2023/03/22 07:26:17;;;;;;;5.20;3.65;;;15.80;99.90;;;;;;5042016;28;20056;-35
2023/03/22 07:28:47;;;;;;;5.78;4.45;;;16.00;99.90;;;;;;5040854;28;20052;-35
2023/03/22 07:31:15;;;;;;;4.75;4.25;;;16.20;99.90;;;;;;5042938;28;20041;-35
2023/03/22 07:34:06;;;;;;;4.22;3.92;;;17.20;99.90;;;;;;5038869;28;20045;-35
2023/03/22 07:36:42;;;;;;;4.03;3.63;;;18.40;99.00;;;;;;5042853;28;20048;-35
2023/03/22 07:39:11;;;;;;;3.35;3.05;;;18.50;95.20;;;;;;5041783;28;20059;-35
2023/03/22 07:41:43;;;;;;;6.63;3.38;;;18.10;95.00;;;;;;5041627;28;20406;-35
2023/03/22 07:44:31;;;;;;;3.28;3.00;;;16.80;97.80;;;;;;5041467;28;20579;-35
2023/03/22 07:47:10;;;;;;;3.05;2.75;;;16.10;99.90;;;;;;5043137;28;20060;-35
2023/03/22 07:50:02;;;;;;;;;;;16.30;99.90;;;;;;5041179;28;20056;-35
2023/03/22 07:52:31;;;;;;;2.85;2.65;;;17.10;99.90;;;;;;5042206;28;19924;-35
2023/03/22 07:54:59;;;;;;;2.50;2.35;;;17.40;99.90;;;;;;5027674;28;20137;-35
2023/03/22 07:57:27;;;;;;;4.22;3.40;;;17.50;99.90;;;;;;5038321;28;20422;-36
2023/03/22 07:59:58;;;;;;;4.90;3.08;;;17.30;99.90;;;;;;5038138;28;20056;-35
2023/03/22 08:02:44;;;;;;;3.65;3.35;;;17.60;98.20;;;;;;5033253;28;20050;-36
2023/03/22 08:05:24;;;;;;;2.83;2.63;;;17.40;99.90;;;;;;5041568;28;20505;-36
2023/03/22 08:07:58;;;;;;;4.28;3.17;;;17.10;99.90;;;;;;5032266;28;20541;-36
2023/03/22 08:10:26;;;;;;;3.25;2.70;;;16.60;99.90;;;;;;5028819;28;20064;-36
2023/03/22 08:12:55;;;;;;;4.15;2.28;;;16.10;99.90;;;;;;5020595;28;20070;-36
2023/03/22 08:15:25;;;;;;;3.58;3.25;;;15.60;99.90;;;;;;5039782;28;20524;-35
2023/03/22 08:17:56;;;;;;;2.25;2.15;;;15.40;99.90;;;;;;5037272;28;20413;-35
2023/03/22 08:20:44;;;;;;;2.00;1.85;;;15.60;99.90;;;;;;5016559;28;20057;-36
2023/03/22 08:23:17;;;;;;;3.20;3.00;;;15.40;99.90;;;;;;5018093;28;20557;-35
2023/03/22 08:26:11;;;;;;;3.97;3.42;;;15.40;99.90;;;;;;5029806;28;20438;-35
2023/03/22 08:28:38;;;;;;;2.55;2.35;;;15.90;99.90;;;;;;5039869;28;20048;-35
2023/03/22 08:31:14;;;;;;;3.13;2.92;;;16.20;99.90;;;;;;5040991;28;20064;-35
2023/03/22 08:33:45;;;;;;;3.83;2.83;;;16.70;99.90;;;;;;5040043;28;20573;-36
2023/03/22 08:36:17;;;;;;;4.60;2.95;;;17.00;99.90;;;;;;5041631;28;20525;-35
2023/03/22 08:38:49;;;;;;;3.28;2.88;;;16.90;97.30;;;;;;5040512;28;20540;-35
2023/03/22 08:41:22;;;;;;;5.72;2.88;;;16.40;99.90;;;;;;5039773;28;20569;-35
2023/03/22 08:43:50;;;;;;;2.88;2.67;;;17.00;99.80;;;;;;5039127;28;20041;-36
2023/03/22 08:46:17;;;;;;;4.85;3.20;;;17.50;97.40;;;;;;5040291;28;20517;-35
2023/03/22 08:48:57;;;;;;;3.13;2.25;;;17.50;98.00;;;;;;5040919;28;20061;-35
2023/03/22 08:51:31;;;;;;;3.72;2.20;;;17.20;98.90;;;;;;5040148;28;20271;-36
2023/03/22 08:54:09;;;;;;;3.65;3.33;;;18.00;94.10;;;;;;5032129;28;20057;-36
2023/03/22 08:56:51;;;;;;;3.22;2.58;;;18.50;95.10;;;;;;5041494;28;20049;-35
2023/03/22 08:59:44;;;;;;;2.17;2.00;;;18.10;94.90;;;;;;5015311;28;20057;-35
2023/03/22 09:02:26;;;;;;;;;;;18.10;94.80;;;;;;5027689;28;20409;-36
2023/03/22 09:04:54;;;;;;;4.05;2.63;;;17.50;96.00;;;;;;5040547;28;19935;-36
2023/03/22 09:07:23;;;;;;;3.42;3.13;;;17.80;95.60;;;;;;5040132;28;20056;-36
2023/03/22 09:10:03;;;;;;;3.30;3.00;;;17.40;96.10;;;;;;5032528;28;20049;-35
2023/03/22 09:12:32;;;;;;;6.82;2.17;;;17.40;96.30;;;;;;5019585;28;20053;-36
2023/03/22 09:14:59;;;;;;;2.75;2.40;;;17.70;97.20;;;;;;5031283;28;20046;-36
2023/03/22 09:17:30;;;;;;;2.15;1.95;;;17.60;96.90;;;;;;5020198;28;20053;-36
2023/03/22 09:19:57;;;;;;;5.72;2.78;;;17.50;95.30;;;;;;5022503;28;20053;-36
2023/03/22 09:22:41;;;;;;;3.03;2.33;;;17.30;99.00;;;;;;5035648;28;20045;-36
2023/03/22 09:25:10;;;;;;;2.35;2.17;;;16.70;99.20;;;;;;5040703;28;20099;-36
2023/03/22 09:27:42;;;;;;;3.28;1.95;;;16.30;99.90;;;;;;5038266;28;20049;-36
2023/03/22 09:30:10;;;;;;;5.07;2.83;;;16.20;98.70;;;;;;5041337;28;20859;-36
2023/03/22 09:32:37;;;;;;;3.85;3.40;;;15.70;99.90;;;;;;5041699;28;20064;-36
2023/03/22 09:35:10;;;;;;;4.70;3.22;;;15.80;98.80;;;;;;5039967;28;20053;-37
2023/03/22 09:37:58;;;;;;;3.25;2.83;;;15.50;99.90;;;;;;5032440;28;20052;-36
2023/03/22 09:40:30;;;;;;;4.78;2.85;;;15.60;99.90;;;;;;5039853;28;20386;-36
2023/03/22 09:43:02;;;;;;;3.55;2.67;;;15.80;99.90;;;;;;5048974;28;20079;-36
2023/03/22 09:45:41;;;;;;;5.55;3.25;;;15.60;99.90;;;;;;5044690;28;20052;-36
2023/03/22 09:48:19;;;;;;;7.22;2.92;;;15.70;99.20;;;;;;5042004;28;20588;-36
2023/03/22 09:50:51;;;;;;;2.78;2.58;;;15.50;99.80;;;;;;5041107;28;20044;-36
2023/03/22 09:53:22;;;;;;;6.63;2.97;;;15.40;99.90;;;;;;5041626;28;20416;-37
2023/03/22 09:56:02;;;;;;;5.40;3.35;;;15.40;99.20;;;;;;5040625;28;20064;-36
2023/03/22 09:58:32;;;;;;;4.97;3.40;;;15.40;99.90;;;;;;5040891;28;20507;-36
2023/03/22 10:01:23;;;;;;;2.97;2.78;;;15.80;99.90;;;;;;5036820;28;20056;-36
2023/03/22 10:03:54;;;;;;;7.68;3.63;;;15.50;99.90;;;;;;5019180;28;20076;-36
2023/03/22 10:06:26;;;;;;;4.15;3.75;;;15.30;99.90;;;;;;5032317;28;20053;-37
2023/03/22 10:09:18;;;;;;;5.43;4.22;;;15.20;99.90;;;;;;5017569;28;20560;-37
2023/03/22 10:11:55;;;;;;;3.25;2.75;;;15.10;99.90;;;;;;5021057;28;20060;-36
2023/03/22 10:14:37;;;;;;;5.18;4.65;;;15.30;99.90;;;;;;5028790;28;20425;-36
2023/03/22 10:17:11;;;;;;;4.18;3.30;;;15.50;99.90;;;;;;5041902;28;20588;-36
2023/03/22 10:20:20;;;;;;;4.05;3.17;;;15.50;99.90;;;;;;5041940;28;20049;-36
2023/03/22 10:22:50;;;;;;;4.10;3.45;;;15.40;99.90;;;;;;5012223;28;20084;-36
2023/03/22 10:25:23;;;;;;;5.05;3.30;;;15.50;99.20;;;;;;5021934;28;20054;-36
2023/03/22 10:27:51;;;;;;;3.33;2.60;;;15.60;99.70;;;;;;5024350;28;20048;-36
2023/03/22 10:30:20;;;;;;;5.53;3.33;;;15.80;99.90;;;;;;5024729;28;20054;-35
2023/03/22 10:33:02;;;;;;;3.83;3.08;;;16.10;99.90;;;;;;5025366;28;20064;-36
2023/03/22 10:35:30;;;;;;;3.13;2.85;;;16.10;99.90;;;;;;5039216;28;20048;-36
2023/03/22 10:38:03;;;;;;;2.53;2.33;;;16.20;97.60;;;;;;5044757;28;20045;-36
2023/03/22 10:40:34;;;;;;;3.67;2.47;;;16.20;99.10;;;;;;5045188;28;20120;-36
2023/03/22 10:43:10;;;;;;;3.38;3.00;;;16.30;99.90;;;;;;5040876;28;20049;-36
2023/03/22 10:45:38;;;;;;;1.98;1.88;;;16.50;97.70;;;;;;5044236;28;20499;-36
2023/03/22 10:48:15;;;;;;;3.15;2.72;;;16.40;99.90;;;;;;5045159;28;20057;-37
2023/03/22 10:50:46;;;;;;;35.85;3.25;;;16.50;99.90;;;;;;5044622;28;20545;-37
2023/03/22 10:53:35;;;;;;;7.32;3.03;;;16.20;99.20;;;;;;5044719;28;20413;-37
2023/03/22 10:56:05;;;;;;;2.03;1.70;;;16.00;98.10;;;;;;5033350;28;20076;-35
2023/03/22 10:58:34;;;;;;;2.65;2.38;;;16.00;99.90;;;;;;5042660;28;20053;-35
2023/03/22 11:01:08;;;;;;;2.25;2.05;;;16.50;99.90;;;;;;5040349;28;20057;-35
2023/03/22 11:03:39;;;;;;;2.53;2.33;;;16.50;99.90;;;;;;5042162;28;20052;-36
2023/03/22 11:06:14;;;;;;;3.95;2.63;;;16.70;99.00;;;;;;5044363;28;20045;-36
2023/03/22 11:08:57;;;;;;;3.55;2.42;;;16.80;99.80;;;;;;5044600;28;20068;-36
2023/03/22 11:11:27;;;;;;;3.10;2.60;;;16.90;98.60;;;;;;5042115;28;20044;-37
2023/03/22 11:13:58;;;;;;;2.53;2.33;;;17.00;99.90;;;;;;5042270;28;20045;-36
2023/03/22 11:16:28;;;;;;;4.95;2.40;;;16.90;96.20;;;;;;5044364;28;20390;-36
2023/03/22 11:18:57;;;;;;;2.30;2.10;;;16.90;98.80;;;;;;5044153;28;20050;-36
2023/03/22 11:21:32;;;;;;;2.42;2.22;;;17.00;95.60;;;;;;5043626;28;20371;-36
2023/03/22 11:24:04;;;;;;;3.08;2.13;;;16.90;99.40;;;;;;5044591;28;20467;-36
2023/03/22 11:26:36;;;;;;;2.63;2.40;;;17.10;96.40;;;;;;5043687;28;20048;-36
2023/03/22 11:29:18;;;;;;;5.72;3.10;;;17.30;97.80;;;;;;5040832;28;20056;-37
2023/03/22 11:31:59;;;;;;;1.70;1.60;;;17.30;94.20;;;;;;5042393;28;20052;-36
2023/03/22 11:34:29;;;;;;;3.63;2.10;;;17.10;96.40;;;;;;5039343;28;20063;-36
2023/03/22 11:37:00;;;;;;;2.97;2.25;;;17.30;98.60;;;;;;5042991;28;20053;-36
2023/03/22 11:39:28;;;;;;;4.97;2.03;;;17.50;99.10;;;;;;5043308;28;20053;-36
2023/03/22 11:42:00;;;;;;;5.18;2.30;;;17.70;96.40;;;;;;5049812;28;20284;-36
2023/03/22 11:44:33;;;;;;;2.58;1.83;;;17.80;97.90;;;;;;5042594;28;20059;-36
2023/03/22 11:47:03;;;;;;;1.58;1.48;;;17.60;94.40;;;;;;5044968;28;20056;-36
2023/03/22 11:49:45;;;;;;;2.50;1.58;;;17.40;94.10;;;;;;5040726;28;20060;-37
2023/03/22 11:52:22;;;;;;;1.83;1.73;;;17.30;96.90;;;;;;5020267;28;20053;-37
2023/03/22 11:54:50;;;;;;;4.38;1.73;;;17.10;90.60;;;;;;5032752;28;20052;-36
2023/03/22 11:57:28;;;;;;;1.75;1.65;;;17.20;91.90;;;;;;5042900;28;20053;-36
2023/03/22 11:59:59;;;;;;;3.97;1.77;;;17.40;92.20;;;;;;5043436;28;20068;-36
2023/03/22 12:02:47;;;;;;;1.67;1.45;;;17.60;89.80;;;;;;5038781;28;20059;-37
2023/03/22 12:05:26;;;;;;;1.88;0.98;;;17.60;91.10;;;;;;5038709;28;20444;-36
2023/03/22 12:08:14;;;;;;;12.63;2.13;;;17.80;91.80;;;;;;5004167;28;20049;-37
2023/03/22 12:10:46;;;;;;;2.22;1.52;;;17.60;90.30;;;;;;5023069;28;20450;-37
2023/03/22 12:13:31;;;;;;;1.45;1.35;;;17.30;90.00;;;;;;5022721;28;20053;-37
2023/03/22 12:16:03;;;;;;;2.65;1.83;;;17.30;85.00;;;;;;5031283;28;20045;-36
2023/03/22 12:18:46;;;;;;;2.63;1.42;;;17.50;90.90;;;;;;5024952;28;20049;-37
2023/03/22 12:21:14;;;;;;;2.50;1.98;;;17.60;89.50;;;;;;5023714;28;20053;-38
2023/03/22 12:23:42;;;;;;;1.63;1.27;;;17.20;92.10;;;;;;5043265;28;20067;-38
2023/03/22 12:26:26;;;;;;;2.47;2.08;;;17.10;88.30;;;;;;5042985;28;20075;-38
2023/03/22 12:29:07;;;;;;;1.70;1.25;;;17.10;90.70;;;;;;5042655;28;20049;-37
2023/03/22 12:31:39;;;;;;;2.30;1.67;;;17.00;91.30;;;;;;5043446;28;20044;-37
2023/03/22 12:34:14;;;;;;;1.55;1.40;;;17.40;87.10;;;;;;5043440;28;20517;-37
2023/03/22 12:36:51;;;;;;;1.55;1.45;;;17.50;89.20;;;;;;5042474;28;20509;-37
2023/03/22 12:39:34;;;;;;;1.90;1.75;;;17.90;91.30;;;;;;5038208;28;20052;-37
2023/03/22 12:42:20;;;;;;;2.03;1.83;;;17.80;91.30;;;;;;5041103;28;20041;-36
2023/03/22 12:44:49;;;;;;;3.75;1.65;;;17.70;91.20;;;;;;5040061;28;20064;-37
2023/03/22 12:47:41;;;;;;;3.42;1.65;;;18.10;93.40;;;;;;5040913;28;20061;-36
2023/03/22 12:50:37;;;;;;;2.38;2.17;;;18.30;88.20;;;;;;5042456;28;20088;-36
2023/03/22 12:53:05;;;;;;;1.92;1.83;;;18.40;91.20;;;;;;5038417;28;20060;-36
2023/03/22 12:55:36;;;;;;;1.17;1.08;;;18.40;90.80;;;;;;5038638;28;20048;-36
2023/03/22 12:58:09;;;;;;;1.52;1.35;;;18.20;82.90;;;;;;5037527;28;20057;-45
2023/03/22 13:00:48;;;;;;;0.88;0.88;;;18.30;83.70;;;;;;5041332;28;20056;-37
2023/03/22 13:03:18;;;;;;;1.25;0.95;;;18.30;82.60;;;;;;5038372;28;20049;-37
2023/03/22 13:05:49;;;;;;;2.08;1.13;;;18.40;86.80;;;;;;5036741;28;20044;-37
2023/03/22 13:08:21;;;;;;;8.32;2.03;;;18.30;81.70;;;;;;5037938;28;20049;-36
2023/03/22 13:11:03;;;;;;;1.67;1.33;;;18.30;81.10;;;;;;5034239;28;20068;-36
2023/03/22 13:13:38;;;;;;;1.58;1.00;;;18.40;83.70;;;;;;5034901;28;20061;-36
2023/03/22 13:16:11;;;;;;;5.65;2.13;;;18.50;85.60;;;;;;5041932;28;20063;-37
2023/03/22 13:18:42;;;;;;;2.15;1.20;;;18.50;78.30;;;;;;5033346;28;20584;-37
2023/03/22 13:21:21;;;;;;;1.58;1.45;;;18.30;77.70;;;;;;5036639;28;20507;-38
2023/03/22 13:24:04;;;;;;;6.95;1.10;;;18.50;78.30;;;;;;5036867;28;20045;-36
2023/03/22 13:26:38;;;;;;;5.57;1.02;;;18.50;79.50;;;;;;5036880;28;20087;-37
2023/03/22 13:29:18;;;;;;;0.77;0.77;;;18.50;81.10;;;;;;5034032;28;20053;-37
2023/03/22 13:31:52;;;;;;;1.77;1.20;;;18.60;83.30;;;;;;5036257;28;20381;-37